Terminal Aerodrome Forecast
Issued by NWS Brownsville, TX

Home | Current Version | Previous Version | Text Only | Print | Product List | Glossary On
Versions: 1 2 3 4 5 6 7 8 9 10 11 12 13 14 15 16 17 18 19
914
FTUS44 KBRO 051736
TAFHRL
TAF
KHRL 051736Z 0518/0618 13013G22KT P6SM BKN050
     FM060100 11005KT P6SM BKN040
     FM060500 14003KT 5SM BR OVC025
     FM060800 32005KT P6SM SCT025
     FM061400 32014G21KT P6SM SKC=

USA.gov is the U.S. government's official web portal to all federal, state and local government web resources and services.